Latest Coastal Weather Observations for Warruwi

IDD60701

Issued at 11:11 am CST Wednesday 18 January 2017 (issued every 10 minutes, with the page automatically refreshed every 10 minutes)

About coastal observations | Map of coastal stations | Coastal observations for NT | Marine services | Other Formats
Station Details ID: 014401 Name: WARRUWI AIRPORT Lat: -11.65 Lon: 133.38 Height: 19.2 m
Data from the previous 72 hours. | See also: Recent months at Warruwi
Date/Time
CST
Temp
°C
Wind Pressure Rain since
9am
mm
Weather Cloud Vis
km
Sea
Height
m
Swell
Dir  Spd
kts
Gust
kts
hPa Trend Height
m
Period
s
Dir
18/11:00am 28.8 NNW 2 4 1011.3 - 0.0 - - - - - - -
18/10:30am 28.9 WNW 2 4 1011.6 - 0.0 - - - - - - -
18/10:00am 28.2 NW 2 5 1011.8 - 0.0 - - - - - - -
18/09:30am 27.8 NW 3 6 1011.8 - 0.0 - - - - - - -
18/09:00am 27.9 WSW 2 3 1012.0 - 3.0 Recent precip. - - - - - -
18/08:30am 27.2 W 4 6 1011.7 - 3.0 - - - - - - -
18/08:00am 26.9 N 4 9 1011.5 - 2.2 - - - - - - -
18/07:30am 28.5 NW 2 4 1011.0 - 0.6 - - - - - - -
18/07:00am 27.8 NW 2 2 1010.6 - 0.6 - - - - - - -
18/06:30am 27.6 NNW 1 2 1010.3 - 0.6 - - - - - - -
18/06:00am 27.3 WNW 2 3 1009.9 - 0.6 Recent precip. - - - - - -
18/05:30am 27.6 N 2 3 1009.3 - 0.6 - - - - - - -
18/05:00am 27.8 WNW 2 3 1009.1 - 0.2 - - - - - - -
18/04:30am 27.6 NW 2 3 1008.9 - 0.2 - - - - - - -
18/04:00am 27.4 NW 2 3 1008.7 - 0.2 - - - - - - -
18/03:30am 27.6 NW 3 5 1008.8 - 0.2 - - - - - - -
18/03:00am 28.4 NW 2 5 1009.1 - 0.0 - - - - - - -
18/02:30am 28.4 NW 3 5 1009.2 - 0.0 - - - - - - -
18/02:00am 28.4 NW 3 5 1009.1 - 0.0 - - - - - - -
18/01:30am 28.5 NW 2 4 1009.3 - 0.0 - - - - - - -
18/01:00am 28.7 WNW 4 7 1009.4 - 0.0 - - - - - - -
18/12:30am 28.8 NW 4 9 1009.7 - 0.0 - - - - - - -
18/12:00am 28.8 NW 4 7 1009.9 - 0.0 - - - - - - -
 
Date/Time
CST
Temp
°C
Wind Pressure Rain since
9am
mm
Weather Cloud Vis
km
Sea
Height
m
Swell
Dir  Spd
kts
Gust
kts
hPa Trend Height
m
Period
s
Dir
17/11:30pm 28.9 NW 5 8 1010.1 - 0.0 - - - - - - -
17/11:00pm 28.9 NW 4 8 1010.4 - 0.0 - - - - - - -
17/10:30pm 29.0 NW 5 8 1010.2 - 0.0 - - - - - - -
17/10:00pm 29.1 NW 3 9 1010.1 - 0.0 - - - - - - -
17/09:30pm 28.9 NNW 4 9 1009.8 - 0.0 - - - - - - -
17/09:00pm 28.9 NNW 4 9 1009.7 - 0.0 - - - - - - -
17/08:30pm 28.9 NNW 4 7 1010.0 - 0.0 - - - - - - -
17/08:00pm 29.0 NNW 3 7 1009.8 - 0.0 - - - - - - -
17/07:30pm 29.0 NNW 3 6 1009.3 - 0.0 - - - - - - -
17/07:00pm 29.5 NNW 4 7 1008.9 - 0.0 - - - - - - -
17/06:30pm 29.6 N 5 10 1008.7 - 0.0 - - - - - - -
17/06:00pm 29.7 N 5 9 1008.1 - 0.0 - - - - - - -
17/05:30pm 30.2 N 5 11 1007.9 - 0.0 - - - - - - -
17/05:00pm 30.5 N 7 13 1007.6 - 0.0 - - - - - - -
17/04:30pm 31.1 N 5 11 1007.5 - 0.0 - - - - - - -
17/04:00pm 31.6 N 5 9 1007.3 - 0.0 - - - - - - -
17/03:30pm 31.7 N 7 14 1007.6 - 0.0 - - - - - - -
17/03:00pm 31.9 N 6 9 1007.7 - 0.0 - - - - - - -
17/02:30pm 32.2 N 5 9 1007.8 - 0.0 - - - - - - -
17/02:00pm 31.7 N 5 9 1008.3 - 0.0 - - - - - - -
17/01:30pm 31.6 N 5 9 1008.6 - 0.0 - - - - - - -
17/01:00pm 32.1 NNW 4 7 1008.8 - 0.0 - - - - - - -
17/12:30pm 31.9 NNW 4 8 1008.9 - 0.0 - - - - - - -
17/12:00pm 31.8 NNW 4 7 1009.1 - 0.0 - - - - - - -
17/11:30am 31.5 NW 3 5 1009.5 - 0.0 - - - - - - -
17/11:00am 31.7 NNW 3 7 1009.7 - 0.0 - - - - - - -
17/10:30am 31.4 N 3 6 1009.8 - 0.0 - - - - - - -
17/10:00am 31.3 NNE 2 6 1010.3 - 0.0 - - - - - - -
17/09:30am 30.0 NE 3 4 1010.5 - 0.0 - - - - - - -
17/09:00am 29.4 E 1 1 1010.5 - 0.0 - - - - - - -
17/08:30am 28.4 S 1 2 1010.3 - 0.0 - - - - - - -
17/08:00am 27.3 CALM 0 0 1010.1 - 0.0 - - - - - - -
17/07:30am 26.6 CALM 0 0 1009.7 - 0.0 - - - - - - -
17/07:00am 26.6 CALM 0 0 1009.3 - 0.0 - - - - - - -
17/06:30am 26.5 CALM 0 0 1008.6 - 0.0 - - - - - - -
17/06:00am 26.9 CALM 0 0 1007.9 - 0.0 - - - - - - -
17/05:30am 27.1 WSW 1 2 1007.4 - 0.0 - - - - - - -
17/05:00am 27.0 SSW 1 2 1007.1 - 0.0 - - - - - - -
17/04:30am 27.3 SW 2 3 1007.1 - 0.0 - - - - - - -
17/04:00am 27.6 SW 2 3 1007.2 - 0.0 - - - - - - -
17/03:30am 27.6 WSW 2 3 1007.0 - 0.0 - - - - - - -
17/03:00am 27.5 WSW 3 5 1007.1 - 0.0 - - - - - - -
17/02:30am 27.7 SW 4 5 1007.4 - 0.0 - - - - - - -
17/02:00am 27.9 SW 3 4 1007.4 - 0.0 - - - - - - -
17/01:30am 28.4 W 5 6 1007.6 - 0.0 - - - - - - -
17/01:00am 28.4 W 5 6 1007.7 - 0.0 - - - - - - -
17/12:30am 28.4 WNW 4 7 1007.9 - 0.0 - - - - - - -
17/12:00am 28.4 WNW 4 7 1008.1 - 0.0 - - - - - - -
 
Date/Time
CST
Temp
°C
Wind Pressure Rain since
9am
mm
Weather Cloud Vis
km
Sea
Height
m
Swell
Dir  Spd
kts
Gust
kts
hPa Trend Height
m
Period
s
Dir
16/11:30pm 28.3 WNW 3 6 1008.2 - 0.0 - - - - - - -
16/11:00pm 27.7 CALM 0 0 1008.2 - 0.0 - - - - - - -
16/10:30pm 28.1 CALM 0 0 1008.1 - 0.0 - - - - - - -
16/10:00pm 28.2 SW 3 5 1007.9 - 0.0 - - - - - - -
16/09:30pm 28.2 NW 2 3 1007.8 - 0.0 - - - - - - -
16/09:00pm 28.1 NNW 2 3 1007.9 - 0.0 - - - - - - -
16/08:30pm 28.2 NNW 2 3 1008.0 - 0.0 - - - - - - -
16/08:00pm 28.3 NW 3 6 1008.1 - 0.0 - - - - - - -
16/07:30pm 28.6 NNW 2 3 1008.2 - 0.0 - - - - - - -
16/07:00pm 28.8 NW 2 3 1007.9 - 0.0 - - - - - - -
16/06:30pm 29.0 NW 2 5 1007.5 - 0.0 - - - - - - -
16/06:00pm 29.3 WNW 3 5 1007.2 - 0.0 - - - - - - -
16/05:30pm 29.4 WNW 3 4 1006.5 - 0.0 - - - - - - -
16/05:00pm 29.6 WNW 5 8 1006.2 - 0.0 - - - - - - -
16/04:30pm 30.0 WNW 6 11 1005.9 - 0.0 - - - - - - -
16/04:00pm 29.9 WNW 7 11 1005.7 - 0.0 - - - - - - -
16/03:30pm 30.0 WNW 4 7 1005.9 - 0.0 - - - - - - -
16/03:00pm 29.1 WNW 5 9 1006.2 - 0.0 - - - - - - -
16/02:30pm 28.4 WSW 6 10 1006.7 - 0.0 - - - - - - -
16/02:00pm 31.2 NW 6 10 1007.1 - 0.0 - - - - - - -
16/01:30pm 31.9 WNW 5 10 1007.4 - 0.0 - - - - - - -
16/01:00pm 31.3 WNW 4 7 1007.6 - 0.0 - - - - - - -
16/12:30pm 31.9 W 6 10 1008.0 - 0.0 - - - - - - -
16/12:00pm 30.4 W 7 9 1008.6 - 0.0 - - - - - - -
16/11:30am 30.2 WNW 7 10 1009.0 - 0.0 - - - - - - -
16/11:00am 30.0 WNW 7 10 1009.1 - 0.0 - - - - - - -
16/10:30am 30.0 WNW 6 11 1009.1 - 0.0 - - - - - - -
16/10:00am 29.7 WNW 6 10 1009.1 - 0.0 - - - - - - -
16/09:30am 29.4 WNW 6 10 1009.0 - 0.0 - - - - - - -
16/09:00am 29.3 WNW 7 11 1008.9 - - - - - - - - -
16/08:30am 29.1 WNW 6 9 1008.7 - - - - - - - - -
16/08:00am 28.9 WNW 7 10 1008.6 - - - - - - - - -
16/07:30am 28.7 WNW 6 9 1008.1 - - - - - - - - -
16/07:00am 28.7 WNW 7 11 1007.8 - - - - - - - - -
16/06:30am 28.5 WNW 5 10 1007.6 - - - - - - - - -
16/06:00am 28.6 WNW 7 11 1007.5 - - - - - - - - -
16/05:30am 28.5 WNW 7 12 1007.2 - - - - - - - - -
16/05:00am 28.4 WNW 7 10 1006.8 - - - - - - - - -
16/04:30am 28.4 WNW 7 11 1006.8 - - - - - - - - -
16/04:00am 28.5 WNW 7 11 1006.7 - - - - - - - - -
16/03:30am 28.6 WNW 8 13 1006.7 - - - - - - - - -
16/03:00am 28.7 WNW 7 13 1006.7 - 0.0 - - - - - - -
16/02:30am 28.7 WNW 6 11 1006.7 - - - - - - - - -
16/02:00am 28.6 WNW 6 10 1006.4 - - - - - - - - -
16/01:30am 28.8 WNW 6 10 1006.6 - - - - - - - - -
16/01:00am 28.7 WNW 5 8 1006.8 - - - - - - - - -
16/12:30am 28.6 NW 4 7 1007.1 - - - - - - - - -
16/12:00am 28.8 NW 3 7 1007.4 - - - - - - - - -
 
Date/Time
CST
Temp
°C
Wind Pressure Rain since
9am
mm
Weather Cloud Vis
km
Sea
Height
m
Swell
Dir  Spd
kts
Gust
kts
hPa Trend Height
m
Period
s
Dir
15/11:30pm 28.9 NW 4 6 1007.9 - - - - - - - - -
15/11:00pm 28.9 WNW 3 5 1008.2 - - - - - - - - -
15/10:30pm 28.9 NNW 3 7 1008.2 - - - - - - - - -
15/10:00pm 29.0 NW 3 6 1008.0 - - - - - - - - -
15/09:30pm 29.1 NW 4 7 1007.9 - - - - - - - - -
15/09:00pm - - - - - - - - - - - - - -
15/08:30pm 29.2 NW 5 9 1007.6 - 0.0 - - - - - - -
15/08:00pm 29.3 NW 5 10 1007.5 - 0.0 - - - - - - -
15/07:30pm 29.5 NW 5 9 1007.3 - 0.0 - - - - - - -
15/07:00pm 29.5 NW 5 11 1007.1 - 0.0 - - - - - - -
15/06:30pm 29.6 NW 6 11 1006.7 - 0.0 - - - - - - -
15/06:00pm 29.9 NW 5 10 1006.6 - 0.0 - - - - - - -
15/05:30pm 30.6 NNW 6 13 1006.5 - 0.0 - - - - - - -
15/05:00pm 30.9 NNW 6 10 1006.3 - 0.0 - - - - - - -
15/04:30pm 30.9 NNW 8 13 1006.3 - 0.0 - - - - - - -
15/04:00pm 31.1 NNW 8 13 1006.3 - 0.0 - - - - - - -
15/03:30pm 31.1 NNW 7 12 1006.5 - 0.0 - - - - - - -
15/03:00pm 31.1 NNW 7 12 1006.9 - 0.0 - - - - - - -
15/02:30pm 31.8 NNW 5 11 1007.3 - 0.0 - - - - - - -
15/02:00pm 31.5 NNW 6 10 1007.9 - 0.0 - - - - - - -
15/01:30pm 31.7 NNW 5 10 1008.4 - 0.0 - - - - - - -
15/01:00pm 31.9 NNW 7 11 1008.7 - 0.0 - - - - - - -
15/12:30pm 31.6 NNW 5 9 1009.0 - 0.0 - - - - - - -
15/12:00pm 32.5 WNW 4 7 1009.2 - 0.0 - - - - - - -
15/11:30am 31.7 WNW 5 8 1009.6 - 0.0 - - - - - - -

Other Formats:

Comma delimited format used in spreadsheet applications
http://www.bom.gov.au/fwo/IDD60701/IDD60701.94139.axf

JavaScript Object Notation format (JSON) in row-major order
http://www.bom.gov.au/fwo/IDD60701/IDD60701.94139.json